createdAt,value
2022-09-15T00:01:56.499Z,38.92
2022-09-15T00:04:24.601Z,37.03
2022-09-15T00:06:52.809Z,37.47
2022-09-15T00:09:20.813Z,37.05
2022-09-15T00:11:48.892Z,36.58
2022-09-15T00:14:19.847Z,36.97
2022-09-15T00:16:50.875Z,37.67
2022-09-15T00:19:18.949Z,37.10
2022-09-15T00:21:49.653Z,37.33
2022-09-15T00:24:17.752Z,35.22
2022-09-15T00:26:45.799Z,38.30
2022-09-15T00:29:13.978Z,39.45
2022-09-15T00:31:41.954Z,38.13
2022-09-15T00:34:13.832Z,37.08
2022-09-15T00:36:42.072Z,37.22
2022-09-15T00:39:10.230Z,37.20
2022-09-15T00:41:40.835Z,35.15
2022-09-15T00:44:37.693Z,35.63
2022-09-15T00:47:19.083Z,37.55
2022-09-15T00:49:58.402Z,34.70
2022-09-15T00:52:44.638Z,36.47
2022-09-15T00:55:34.829Z,35.03
2022-09-15T00:58:07.873Z,36.63
2022-09-15T01:00:39.506Z,38.97
2022-09-15T01:03:10.456Z,38.45
2022-09-15T01:05:45.764Z,38.70
2022-09-15T01:08:27.661Z,36.55
2022-09-15T01:10:58.400Z,36.08
2022-09-15T01:13:30.268Z,38.38
2022-09-15T01:16:15.484Z,38.33
2022-09-15T01:19:20.710Z,40.53
2022-09-15T01:22:18.002Z,41.20
2022-09-15T01:24:45.992Z,41.88
2022-09-15T01:27:42.507Z,40.03
2022-09-15T01:30:19.009Z,40.88
2022-09-15T01:33:03.485Z,40.50
2022-09-15T01:35:43.534Z,41.15
2022-09-15T01:38:25.968Z,42.80
2022-09-15T01:41:06.232Z,46.17
2022-09-15T01:43:40.108Z,41.53
2022-09-15T01:46:12.045Z,45.45
2022-09-15T01:48:40.962Z,43.75
2022-09-15T01:51:10.289Z,45.22
2022-09-15T01:53:41.959Z,44.90
2022-09-15T01:56:12.872Z,44.25
2022-09-15T01:58:42.274Z,45.90
2022-09-15T02:01:18.168Z,46.63
2022-09-15T02:03:51.971Z,45.13
2022-09-15T02:06:30.032Z,46.17
2022-09-15T02:09:03.275Z,49.05
2022-09-15T02:11:36.458Z,46.05
2022-09-15T02:14:48.621Z,48.33
2022-09-15T02:17:21.448Z,48.38
2022-09-15T02:19:55.441Z,47.53
2022-09-15T02:25:09.018Z,48.42
2022-09-15T02:27:44.040Z,48.10
2022-09-15T02:30:15.380Z,49.47
2022-09-15T02:32:52.512Z,50.03
2022-09-15T02:35:20.849Z,50.83
2022-09-15T02:37:49.910Z,46.90
2022-09-15T02:40:18.214Z,49.38
2022-09-15T02:42:57.824Z,49.67
2022-09-15T02:45:26.862Z,50.22
2022-09-15T02:47:55.197Z,52.63
2022-09-15T02:50:23.307Z,51.78
2022-09-15T02:52:56.618Z,52.80
2022-09-15T02:55:25.712Z,56.17
2022-09-15T02:57:53.703Z,54.30
2022-09-15T03:00:24.076Z,48.88
2022-09-15T03:02:54.053Z,53.90
2022-09-15T03:05:24.941Z,53.25
2022-09-15T03:07:53.463Z,53.15
2022-09-15T03:10:21.627Z,54.03
2022-09-15T03:12:52.382Z,56.90
2022-09-15T03:15:23.776Z,53.67
2022-09-15T03:17:54.820Z,55.25
2022-09-15T03:20:27.628Z,55.25
2022-09-15T03:22:58.314Z,55.30
2022-09-15T03:25:26.351Z,54.53
2022-09-15T03:27:57.223Z,55.63
2022-09-15T03:30:30.209Z,51.55
2022-09-15T03:33:00.841Z,56.00
2022-09-15T03:35:31.827Z,55.25
2022-09-15T03:37:59.887Z,54.47
2022-09-15T03:40:27.960Z,56.53
2022-09-15T03:42:56.070Z,53.72
2022-09-15T03:45:24.125Z,58.05
2022-09-15T03:47:52.128Z,56.60
2022-09-15T03:50:20.178Z,54.80
2022-09-15T03:52:51.572Z,58.92
2022-09-15T03:55:21.553Z,58.90
2022-09-15T03:57:49.597Z,60.38
2022-09-15T04:00:17.703Z,57.75
2022-09-15T04:02:50.946Z,56.55
2022-09-15T04:05:19.010Z,55.85
2022-09-15T04:07:47.012Z,55.22
2022-09-15T04:10:15.034Z,57.10
2022-09-15T04:12:43.331Z,56.03
2022-09-15T04:15:11.878Z,57.30
2022-09-15T04:17:39.914Z,56.28
2022-09-15T04:20:11.370Z,55.03
2022-09-15T04:22:42.034Z,58.42
2022-09-15T04:25:10.216Z,59.78
2022-09-15T04:27:43.147Z,57.05
2022-09-15T04:30:11.543Z,57.58
2022-09-15T04:32:39.589Z,57.80
2022-09-15T04:35:10.823Z,56.80
2022-09-15T04:37:39.012Z,60.70
2022-09-15T04:40:07.640Z,57.55
2022-09-15T04:42:35.766Z,58.90
2022-09-15T04:45:03.937Z,59.30
2022-09-15T04:47:34.888Z,59.95
2022-09-15T04:50:05.871Z,60.17
2022-09-15T04:52:33.909Z,60.38
2022-09-15T04:55:01.970Z,56.50
2022-09-15T04:57:33.901Z,56.60
2022-09-15T05:00:01.919Z,58.85
2022-09-15T05:02:29.940Z,55.25
2022-09-15T05:04:58.030Z,60.08
2022-09-15T05:07:26.339Z,58.97
2022-09-15T05:09:54.408Z,61.42
2022-09-15T05:12:22.459Z,57.22
2022-09-15T05:14:53.090Z,56.95
2022-09-15T05:17:24.037Z,53.65
2022-09-15T05:19:54.456Z,57.72
2022-09-15T05:22:22.733Z,59.33
2022-09-15T05:24:53.579Z,55.83
2022-09-15T05:27:21.776Z,56.55
2022-09-15T05:29:49.982Z,54.45
2022-09-15T05:32:20.357Z,52.38
2022-09-15T05:34:48.365Z,53.80
2022-09-15T05:37:19.888Z,52.60
2022-09-15T05:39:48.069Z,55.83
2022-09-15T05:42:19.068Z,55.67
2022-09-15T05:44:47.126Z,55.15
2022-09-15T05:47:17.468Z,52.38
2022-09-15T05:49:45.487Z,54.15
2022-09-15T05:52:13.570Z,52.67
2022-09-15T05:54:41.609Z,51.90
2022-09-15T05:57:09.616Z,53.35
2022-09-15T05:59:37.687Z,52.53
2022-09-15T06:02:06.307Z,51.83
2022-09-15T06:04:34.445Z,49.40
2022-09-15T06:07:07.417Z,50.08
2022-09-15T06:09:35.493Z,51.20
2022-09-15T06:12:03.671Z,52.92
2022-09-15T06:14:31.689Z,50.20
2022-09-15T06:17:07.193Z,50.35
2022-09-15T06:19:35.201Z,48.40
2022-09-15T06:22:03.162Z,51.28
2022-09-15T06:24:31.224Z,47.72
2022-09-15T06:26:59.236Z,50.42
2022-09-15T06:29:27.344Z,48.15
2022-09-15T06:31:55.636Z,45.95
2022-09-15T06:34:23.654Z,47.78
2022-09-15T06:36:51.636Z,46.92
2022-09-15T06:39:19.684Z,43.60
2022-09-15T06:42:01.776Z,48.25
2022-09-15T06:44:33.838Z,43.67
2022-09-15T06:47:04.992Z,44.70
2022-09-15T06:49:35.706Z,44.55
2022-09-15T06:52:03.883Z,41.67
2022-09-15T06:54:31.903Z,46.47
2022-09-15T06:56:59.945Z,46.42
2022-09-15T06:59:28.026Z,46.30
2022-09-15T07:01:56.522Z,47.40
2022-09-15T07:04:27.281Z,46.58
2022-09-15T07:06:55.271Z,45.58
2022-09-15T07:09:23.359Z,47.92
2022-09-15T07:11:51.443Z,46.95
2022-09-15T07:14:22.325Z,48.38
2022-09-15T07:16:51.153Z,47.17
2022-09-15T07:19:19.184Z,47.22
2022-09-15T07:21:47.208Z,47.15
2022-09-15T07:24:15.365Z,49.78
2022-09-15T07:26:43.443Z,45.95
2022-09-15T07:29:11.412Z,45.80
2022-09-15T07:31:40.383Z,47.13
2022-09-15T07:34:11.072Z,47.00
2022-09-15T07:36:41.429Z,47.40
2022-09-15T07:39:09.456Z,48.63
2022-09-15T07:41:37.456Z,48.40
2022-09-15T07:44:07.978Z,51.90
2022-09-15T07:46:38.330Z,47.80
2022-09-15T07:49:06.381Z,49.50
2022-09-15T07:51:34.580Z,50.00
2022-09-15T07:54:02.633Z,50.70
2022-09-15T07:56:30.679Z,47.70
2022-09-15T07:59:01.407Z,48.20
2022-09-15T08:01:29.521Z,49.10
2022-09-15T08:04:00.104Z,48.90
2022-09-15T08:06:28.457Z,49.58
2022-09-15T08:09:00.840Z,49.17
2022-09-15T08:11:30.032Z,45.03
2022-09-15T08:14:01.242Z,49.22
2022-09-15T08:16:29.335Z,49.00
2022-09-15T08:19:00.435Z,47.80
2022-09-15T08:21:31.622Z,45.35
2022-09-15T08:24:00.967Z,47.42
2022-09-15T08:26:30.009Z,48.10
2022-09-15T08:29:03.999Z,47.03
2022-09-15T08:33:59.755Z,45.95
2022-09-15T08:36:28.201Z,49.42
2022-09-15T08:38:56.760Z,49.03
2022-09-15T08:41:33.062Z,47.25
2022-09-15T08:44:23.327Z,45.88
2022-09-15T08:47:01.218Z,46.30
2022-09-15T08:49:52.539Z,48.08
2022-09-15T08:52:27.438Z,48.78
2022-09-15T08:54:59.335Z,49.63
2022-09-15T08:57:27.648Z,49.88
2022-09-15T08:59:56.056Z,49.17
2022-09-15T09:02:59.401Z,48.35
2022-09-15T09:05:51.901Z,46.63
2022-09-15T09:08:40.593Z,46.25
2022-09-15T09:11:20.108Z,47.80
2022-09-15T09:13:54.154Z,49.78
2022-09-15T09:16:34.764Z,49.75
2022-09-15T09:19:11.201Z,51.58
2022-09-15T09:21:45.242Z,53.40
2022-09-15T09:26:41.005Z,50.88
2022-09-15T09:29:20.947Z,48.78
2022-09-15T09:31:54.430Z,48.35
2022-09-15T09:34:50.816Z,49.30
2022-09-15T09:37:19.534Z,49.00
2022-09-15T09:39:47.714Z,51.40
2022-09-15T09:42:18.394Z,49.08
2022-09-15T09:44:49.110Z,49.05
2022-09-15T09:47:17.134Z,48.75
2022-09-15T09:49:48.841Z,49.55
2022-09-15T09:52:39.174Z,48.03
2022-09-15T09:55:26.993Z,52.28
2022-09-15T09:58:11.605Z,48.90
2022-09-15T10:00:41.264Z,48.78
2022-09-15T10:03:30.598Z,49.38
2022-09-15T10:06:07.841Z,49.70
2022-09-15T10:08:38.161Z,49.80
2022-09-15T10:11:09.136Z,47.33
2022-09-15T10:13:50.581Z,48.25
2022-09-15T10:16:22.265Z,47.50
2022-09-15T10:18:54.138Z,44.75
2022-09-15T10:21:26.620Z,46.65
2022-09-15T10:23:57.618Z,45.97
2022-09-15T10:26:35.699Z,45.63
2022-09-15T10:29:16.089Z,49.25
2022-09-15T10:31:45.362Z,50.42
2022-09-15T10:34:32.724Z,47.30
2022-09-15T10:37:09.267Z,48.55
2022-09-15T10:39:49.863Z,48.30
2022-09-15T10:42:35.321Z,46.35
2022-09-15T10:45:16.663Z,50.03
2022-09-15T10:48:05.581Z,44.33
2022-09-15T10:51:10.266Z,48.58
2022-09-15T10:53:52.758Z,47.15
2022-09-15T10:56:26.717Z,48.92
2022-09-15T10:59:30.861Z,46.47
2022-09-15T11:02:28.596Z,48.77
2022-09-15T11:05:33.564Z,46.42
2022-09-15T11:08:24.536Z,46.28
2022-09-15T11:11:19.401Z,49.22
2022-09-15T11:14:00.668Z,52.47
2022-09-15T11:16:28.671Z,51.83
2022-09-15T11:19:04.048Z,48.08
2022-09-15T11:21:38.377Z,49.55
2022-09-15T11:24:29.425Z,48.15
2022-09-15T11:27:18.551Z,53.92
2022-09-15T11:30:06.160Z,52.15
2022-09-15T11:32:47.259Z,54.22
2022-09-15T11:35:52.075Z,53.90
2022-09-15T11:38:38.737Z,51.75
2022-09-15T11:41:16.329Z,52.58
2022-09-15T11:43:48.330Z,55.25
2022-09-15T11:46:26.711Z,55.72
2022-09-15T11:49:24.078Z,57.10
2022-09-15T11:52:03.961Z,54.83
2022-09-15T11:55:12.146Z,55.03
2022-09-15T11:58:05.288Z,58.50
2022-09-15T12:00:35.309Z,56.88
2022-09-15T12:03:06.233Z,55.17
2022-09-15T12:05:39.951Z,55.90
2022-09-15T12:08:18.509Z,56.08
2022-09-15T12:10:55.714Z,52.38
2022-09-15T12:13:27.860Z,55.42
2022-09-15T12:16:00.577Z,51.90
2022-09-15T12:18:53.005Z,55.35
2022-09-15T12:21:38.732Z,59.55
2022-09-15T12:24:30.565Z,61.30
2022-09-15T12:27:04.548Z,54.17
2022-09-15T12:29:42.023Z,55.47
2022-09-15T12:32:13.687Z,59.22
2022-09-15T12:34:55.541Z,59.08
2022-09-15T12:37:24.524Z,62.45
2022-09-15T12:39:52.989Z,62.00
2022-09-15T12:42:30.991Z,55.35
2022-09-15T12:45:26.256Z,57.70
2022-09-15T12:48:34.328Z,56.92
2022-09-15T12:51:07.832Z,51.17
2022-09-15T12:53:42.473Z,48.33
2022-09-15T12:56:24.360Z,47.90
2022-09-15T12:59:06.743Z,50.95
2022-09-15T13:01:51.359Z,58.25
2022-09-15T13:07:17.194Z,55.90
2022-09-15T13:10:14.564Z,60.13
2022-09-15T13:12:52.227Z,55.85
2022-09-15T13:15:22.858Z,63.35
2022-09-15T13:17:51.759Z,57.55
2022-09-15T13:20:27.007Z,63.15
2022-09-15T13:22:56.538Z,61.75
2022-09-15T13:25:31.883Z,62.70
2022-09-15T13:28:02.486Z,64.75
2022-09-15T13:31:10.233Z,64.03
2022-09-15T13:40:12.280Z,70.05
2022-09-15T13:43:07.724Z,66.95
2022-09-15T13:45:49.785Z,72.07
2022-09-15T13:48:38.974Z,69.88
2022-09-15T13:51:39.020Z,56.38
2022-09-15T13:54:14.717Z,51.92
2022-09-15T13:56:42.898Z,52.03
2022-09-15T13:59:25.215Z,60.65
2022-09-15T14:01:56.542Z,58.55
2022-09-15T14:04:26.461Z,49.83
2022-09-15T14:07:01.350Z,53.30
2022-09-15T14:09:35.256Z,59.67
2022-09-15T14:12:08.238Z,52.95
2022-09-15T14:14:46.845Z,58.13
2022-09-15T14:17:23.528Z,57.72
2022-09-15T14:19:54.625Z,49.70
2022-09-15T14:22:22.610Z,54.88
2022-09-15T14:24:51.801Z,50.40
2022-09-15T14:27:43.768Z,57.50
2022-09-15T14:30:21.927Z,55.17
2022-09-15T14:32:53.764Z,57.05
2022-09-15T14:35:27.438Z,62.03
2022-09-15T14:37:58.404Z,58.63
2022-09-15T14:40:29.020Z,61.25
2022-09-15T14:42:57.386Z,58.60
2022-09-15T14:45:57.189Z,60.67
2022-09-15T14:48:26.211Z,61.90
2022-09-15T14:51:04.386Z,60.60
2022-09-15T14:53:40.277Z,54.33
2022-09-15T14:56:24.371Z,54.63
2022-09-15T14:58:56.864Z,54.88
2022-09-15T15:01:40.834Z,57.42
2022-09-15T15:04:36.730Z,48.15
2022-09-15T15:07:19.344Z,46.20
2022-09-15T15:10:05.840Z,48.50
2022-09-15T15:12:43.031Z,48.65
2022-09-15T15:15:16.128Z,46.45
2022-09-15T15:17:53.346Z,49.17
2022-09-15T15:20:23.097Z,46.10
2022-09-15T15:23:25.621Z,44.50
2022-09-15T15:25:54.681Z,43.38
2022-09-15T15:28:51.852Z,42.38
2022-09-15T15:31:27.363Z,40.80
2022-09-15T15:34:01.660Z,39.83
2022-09-15T15:36:30.908Z,40.03
2022-09-15T15:39:01.772Z,41.25
2022-09-15T15:41:40.490Z,40.17
2022-09-15T15:44:27.088Z,41.47
2022-09-15T15:47:16.338Z,40.42
2022-09-15T15:50:11.796Z,42.00
2022-09-15T15:52:32.356Z,38.80
2022-09-15T15:55:00.436Z,42.13
2022-09-15T15:57:32.932Z,42.45
2022-09-15T16:00:03.569Z,41.80
2022-09-15T16:02:31.781Z,40.78
2022-09-15T16:04:59.787Z,39.85
2022-09-15T16:07:33.411Z,41.72
2022-09-15T16:10:02.387Z,45.03
2022-09-15T16:12:33.168Z,44.72
2022-09-15T16:15:18.015Z,42.45
2022-09-15T16:17:47.138Z,44.22
2022-09-15T16:20:18.368Z,41.83
2022-09-15T16:22:48.764Z,41.05
2022-09-15T16:25:45.593Z,42.38
2022-09-15T16:28:13.692Z,40.75
2022-09-15T16:30:41.975Z,43.03
2022-09-15T16:33:17.255Z,41.78
2022-09-15T16:35:47.436Z,41.83
2022-09-15T16:38:15.444Z,41.38
2022-09-15T16:40:44.252Z,41.15
2022-09-15T16:43:15.637Z,40.60
2022-09-15T16:45:44.912Z,43.88
2022-09-15T16:48:13.440Z,41.65
2022-09-15T16:50:50.082Z,41.33
2022-09-15T16:53:26.371Z,41.38
2022-09-15T16:55:56.006Z,40.75
2022-09-15T16:58:24.213Z,41.63
2022-09-15T17:00:54.938Z,43.13
2022-09-15T17:03:25.422Z,41.28
2022-09-15T17:05:54.413Z,41.80
2022-09-15T17:08:25.814Z,41.67
2022-09-15T17:10:56.377Z,40.20
2022-09-15T17:13:27.868Z,39.67
2022-09-15T17:16:01.977Z,39.65
2022-09-15T17:18:32.506Z,37.28
2022-09-15T17:21:00.532Z,37.17
2022-09-15T17:23:31.424Z,36.45
2022-09-15T17:26:01.656Z,36.20
2022-09-15T17:28:31.975Z,34.83
2022-09-15T17:31:04.785Z,35.10
2022-09-15T17:33:33.985Z,34.78
2022-09-15T17:36:04.004Z,33.22
2022-09-15T17:38:32.468Z,34.17
2022-09-15T17:41:00.590Z,36.22
2022-09-15T17:43:31.072Z,39.25
2022-09-15T17:46:01.749Z,36.72
2022-09-15T17:48:29.744Z,38.78
2022-09-15T17:50:58.449Z,37.05
2022-09-15T17:53:31.733Z,37.50
2022-09-15T17:55:59.730Z,40.55
2022-09-15T17:58:27.816Z,38.38
2022-09-15T18:00:55.845Z,36.05
2022-09-15T18:03:36.702Z,36.03
2022-09-15T18:06:07.798Z,38.38
2022-09-15T18:08:38.592Z,35.55
2022-09-15T18:11:09.251Z,36.28
2022-09-15T18:13:37.324Z,35.55
2022-09-15T18:16:07.070Z,37.70
2022-09-15T18:18:37.876Z,37.35
2022-09-15T18:21:21.899Z,35.10
2022-09-15T18:23:52.550Z,37.10
2022-09-15T18:26:23.893Z,38.15
2022-09-15T18:28:56.563Z,38.78
2022-09-15T18:31:24.764Z,38.35
2022-09-15T18:33:55.714Z,38.38
2022-09-15T18:36:23.773Z,37.42
2022-09-15T18:38:54.381Z,39.38
2022-09-15T18:41:22.470Z,39.00
2022-09-15T18:43:53.215Z,39.15
2022-09-15T18:46:21.799Z,39.20
2022-09-15T18:48:52.456Z,39.40
2022-09-15T18:51:29.185Z,37.60
2022-09-15T18:54:03.261Z,37.20
2022-09-15T18:56:31.364Z,39.25
2022-09-15T18:58:59.646Z,36.95
2022-09-15T19:01:28.672Z,35.25
2022-09-15T19:03:57.770Z,35.08
2022-09-15T19:06:25.899Z,34.88
2022-09-15T19:08:53.915Z,35.08
2022-09-15T19:11:21.896Z,34.58
2022-09-15T19:13:50.279Z,35.20
2022-09-15T19:16:20.150Z,34.75
2022-09-15T19:18:53.274Z,33.75
2022-09-15T19:21:27.238Z,33.95
2022-09-15T19:23:59.515Z,35.35
2022-09-15T19:26:27.509Z,35.40
2022-09-15T19:28:58.908Z,34.80
2022-09-15T19:31:29.312Z,33.60
2022-09-15T19:34:00.230Z,34.72
2022-09-15T19:36:29.221Z,32.08
2022-09-15T19:38:59.167Z,33.72
2022-09-15T19:41:27.694Z,39.38
2022-09-15T19:44:00.973Z,36.47
2022-09-15T19:46:29.072Z,34.30
2022-09-15T19:48:57.264Z,32.95
2022-09-15T19:51:28.463Z,36.17
2022-09-15T19:54:02.529Z,33.25
2022-09-15T19:56:33.700Z,33.22
2022-09-15T19:59:02.103Z,37.08
2022-09-15T20:01:33.914Z,33.70
2022-09-15T20:04:03.968Z,33.25
2022-09-15T20:06:32.927Z,36.80
2022-09-15T20:09:03.491Z,35.28
2022-09-15T20:11:32.044Z,33.30
2022-09-15T20:14:00.496Z,32.78
2022-09-15T20:16:29.399Z,34.92
2022-09-15T20:18:57.647Z,33.88
2022-09-15T20:21:50.199Z,33.50
2022-09-15T20:24:25.057Z,32.50
2022-09-15T20:26:56.047Z,33.65
2022-09-15T20:29:24.042Z,30.02
2022-09-15T20:31:52.264Z,32.10
2022-09-15T20:34:23.190Z,32.53
2022-09-15T20:36:51.215Z,30.35
2022-09-15T20:39:19.307Z,32.38
2022-09-15T20:41:47.300Z,31.73
2022-09-15T20:44:18.728Z,32.78
2022-09-15T20:46:46.752Z,30.42
2022-09-15T20:49:14.761Z,31.60
2022-09-15T20:51:42.914Z,28.95
2022-09-15T20:54:11.395Z,29.52
2022-09-15T20:56:39.470Z,29.85
2022-09-15T20:59:07.505Z,33.78
2022-09-15T21:01:37.780Z,30.23
2022-09-15T21:04:07.426Z,29.27
2022-09-15T21:06:35.869Z,29.08
2022-09-15T21:09:05.604Z,32.25
2022-09-15T21:11:33.897Z,32.78
2022-09-15T21:14:02.524Z,32.47
2022-09-15T21:16:30.913Z,33.63
2022-09-15T21:18:59.560Z,32.17
2022-09-15T21:21:30.379Z,32.22
2022-09-15T21:24:00.931Z,33.03
2022-09-15T21:26:36.955Z,31.65
2022-09-15T21:29:07.646Z,30.80
2022-09-15T21:31:35.994Z,29.42
2022-09-15T21:34:04.035Z,31.13
2022-09-15T21:36:32.460Z,30.95
2022-09-15T21:39:01.136Z,29.98
2022-09-15T21:41:30.636Z,29.77
2022-09-15T21:44:01.298Z,30.08
2022-09-15T21:46:34.511Z,30.15
2022-09-15T21:49:05.871Z,28.73
2022-09-15T21:51:36.763Z,29.52
2022-09-15T21:54:07.093Z,29.63
2022-09-15T21:56:35.077Z,31.13
2022-09-15T21:59:04.496Z,29.75
2022-09-15T22:01:33.850Z,30.23
2022-09-15T22:04:05.831Z,30.52
2022-09-15T22:06:36.410Z,28.88
2022-09-15T22:09:30.309Z,30.40
2022-09-15T22:12:01.016Z,28.83
2022-09-15T22:14:29.062Z,31.30
2022-09-15T22:16:57.141Z,27.85
2022-09-15T22:19:25.232Z,30.65
2022-09-15T22:21:55.616Z,32.38
2022-09-15T22:24:23.671Z,31.27
2022-09-15T22:26:51.750Z,30.95
2022-09-15T22:29:19.871Z,31.25
2022-09-15T22:31:50.258Z,30.92
2022-09-15T22:34:20.956Z,29.90
2022-09-15T22:36:48.963Z,31.13
2022-09-15T22:39:16.948Z,30.52
2022-09-15T22:41:45.050Z,31.77
2022-09-15T22:44:19.738Z,32.72
2022-09-15T22:46:48.041Z,33.78
2022-09-15T22:49:16.044Z,35.08
2022-09-15T22:51:44.054Z,34.75
2022-09-15T22:54:15.682Z,35.17
2022-09-15T22:56:46.522Z,35.85
2022-09-15T22:59:17.481Z,34.10
2022-09-15T23:01:48.073Z,36.90
2022-09-15T23:04:16.602Z,36.30
2022-09-15T23:06:44.655Z,34.13
2022-09-15T23:09:13.019Z,33.83
2022-09-15T23:11:41.471Z,33.10
2022-09-15T23:14:15.420Z,35.20
2022-09-15T23:19:14.907Z,33.70
2022-09-15T23:21:42.992Z,33.47
2022-09-15T23:24:13.952Z,32.88
2022-09-15T23:26:44.325Z,31.05
2022-09-15T23:29:12.344Z,31.83
2022-09-15T23:31:40.377Z,31.60
2022-09-15T23:34:11.378Z,32.28
2022-09-15T23:36:39.406Z,33.35
2022-09-15T23:39:10.259Z,33.00
2022-09-15T23:41:38.358Z,33.17
2022-09-15T23:44:06.445Z,31.42
2022-09-15T23:46:35.177Z,32.58
2022-09-15T23:49:06.505Z,33.55
2022-09-15T23:51:34.638Z,33.63
2022-09-15T23:54:05.558Z,33.17
2022-09-15T23:56:33.847Z,33.17
2022-09-15T23:59:02.200Z,32.92
